Time;durP1;ratioP1;P1;durP2;ratioP2;P2;SDS_P1;SDS_P2;PMS_P1;PMS_P2;Temp;Humidity;BMP_temperature;BMP_pressure;BME280_temperature;BME280_humidity;BME280_pressure;Samples;Min_cycle;Max_cycle;Signal;HPM_P1;HPM_P2
2023/10/06 00:04:12;;;;;;;13.90;12.32;;;;;;;;;;10302755;28;20045;-71
2023/10/06 00:09:09;;;;;;;14.50;12.85;;;;;;;;;;10311481;28;20575;-71
2023/10/06 00:14:19;;;;;;;15.55;13.50;;;;;;;;;;10309609;28;20420;-71
2023/10/06 00:19:31;;;;;;;14.70;13.25;;;;;;;;;;10306982;28;20131;-71
2023/10/06 00:24:28;;;;;;;16.35;13.23;;;;;;;;;;10290356;28;20109;-71
2023/10/06 00:29:24;;;;;;;16.20;13.20;;;;;;;;;;10313510;28;20040;-70
2023/10/06 00:34:20;;;;;;;16.55;14.00;;;;;;;;;;10317692;28;20701;-71
2023/10/06 00:39:24;;;;;;;15.35;13.73;;;;;;;;;;10307029;28;20106;-70
2023/10/06 00:44:21;;;;;;;15.88;14.13;;;;;;;;;;10304702;28;20051;-70
2023/10/06 00:49:19;;;;;;;16.45;13.73;;;;;;;;;;10315014;28;20446;-71
2023/10/06 00:54:15;;;;;;;18.25;13.38;;;;;;;;;;10308394;28;20492;-71
2023/10/06 00:59:12;;;;;;;16.67;13.38;;;;;;;;;;10306696;28;20083;-71
2023/10/06 01:04:12;;;;;;;15.63;13.60;;;;;;;;;;10310311;28;20512;-71
2023/10/06 01:09:15;;;;;;;13.98;12.52;;;;;;;;;;10303286;28;20603;-70
2023/10/06 01:14:14;;;;;;;16.75;12.75;;;;;;;;;;10296097;28;20556;-70
2023/10/06 01:19:14;;;;;;;15.68;14.05;;;;;;;;;;10303175;28;20505;-71
2023/10/06 01:24:14;;;;;;;18.27;13.82;;;;;;;;;;10305381;28;20110;-71
2023/10/06 01:29:11;;;;;;;16.20;13.35;;;;;;;;;;10305817;28;20048;-71
2023/10/06 01:34:08;;;;;;;19.05;14.43;;;;;;;;;;10297569;28;20044;-71
2023/10/06 01:39:05;;;;;;;21.30;14.82;;;;;;;;;;10279650;28;20579;-71
2023/10/06 01:44:10;;;;;;;17.25;14.60;;;;;;;;;;10282806;28;20084;-71
2023/10/06 01:49:14;;;;;;;20.05;14.65;;;;;;;;;;10293669;28;20433;-71
2023/10/06 01:54:13;;;;;;;17.83;14.00;;;;;;;;;;10295529;28;20056;-70
2023/10/06 01:59:10;;;;;;;19.33;15.43;;;;;;;;;;10292582;28;20044;-71
2023/10/06 02:04:10;;;;;;;23.13;15.30;;;;;;;;;;10300123;28;20052;-71
2023/10/06 02:09:14;;;;;;;18.70;14.52;;;;;;;;;;10309830;28;20084;-71
2023/10/06 02:14:12;;;;;;;23.05;14.27;;;;;;;;;;10296735;28;20046;-70
2023/10/06 02:19:15;;;;;;;22.80;14.85;;;;;;;;;;10300391;28;20053;-70
2023/10/06 02:24:12;;;;;;;19.33;14.65;;;;;;;;;;10294997;28;20132;-71
2023/10/06 02:34:35;;;;;;;18.67;13.70;;;;;;;;;;10266028;28;20140;-70
2023/10/06 02:39:38;;;;;;;24.63;14.32;;;;;;;;;;10295304;28;20106;-70
2023/10/06 02:44:38;;;;;;;17.33;13.93;;;;;;;;;;10293636;28;20114;-71
2023/10/06 02:49:47;;;;;;;16.13;13.45;;;;;;;;;;10286379;28;20044;-71
2023/10/06 02:54:55;;;;;;;16.40;12.35;;;;;;;;;;10286529;28;20077;-71
2023/10/06 02:59:56;;;;;;;19.95;13.07;;;;;;;;;;10295540;28;20069;-70
2023/10/06 03:05:13;;;;;;;18.03;13.00;;;;;;;;;;10301236;28;20075;-70
2023/10/06 03:10:11;;;;;;;20.55;12.25;;;;;;;;;;10297654;28;20057;-71
2023/10/06 03:15:28;;;;;;;18.63;13.10;;;;;;;;;;10293529;28;20052;-71
2023/10/06 03:20:33;;;;;;;15.90;12.93;;;;;;;;;;10274324;28;20416;-71
2023/10/06 03:25:34;;;;;;;21.70;13.07;;;;;;;;;;10308488;28;20531;-71
2023/10/06 03:30:34;;;;;;;19.37;14.43;;;;;;;;;;10306266;28;20060;-71
2023/10/06 03:35:45;;;;;;;16.30;13.43;;;;;;;;;;10309279;28;20059;-70
2023/10/06 03:45:50;;;;;;;16.65;13.82;;;;;;;;;;10311267;28;20647;-71
2023/10/06 03:50:46;;;;;;;23.40;14.85;;;;;;;;;;10301629;28;20090;-71
2023/10/06 03:55:45;;;;;;;18.77;14.63;;;;;;;;;;10302782;28;20477;-71
2023/10/06 04:00:48;;;;;;;21.92;14.68;;;;;;;;;;10314033;28;20080;-71
2023/10/06 04:05:46;;;;;;;26.65;15.88;;;;;;;;;;10310601;28;20044;-71
2023/10/06 04:10:42;;;;;;;20.65;16.83;;;;;;;;;;10291540;28;20060;-71
2023/10/06 04:15:43;;;;;;;18.77;16.40;;;;;;;;;;10309465;28;20056;-71
2023/10/06 04:20:46;;;;;;;19.80;16.42;;;;;;;;;;10311627;28;20051;-71
2023/10/06 04:25:56;;;;;;;18.83;16.13;;;;;;;;;;10315475;28;20136;-70
2023/10/06 04:30:54;;;;;;;20.83;18.10;;;;;;;;;;10304350;28;20052;-71
2023/10/06 04:35:59;;;;;;;23.02;18.52;;;;;;;;;;10304018;28;20044;-71
2023/10/06 04:40:56;;;;;;;19.35;17.25;;;;;;;;;;10305930;28;20048;-71
2023/10/06 04:45:55;;;;;;;18.20;16.33;;;;;;;;;;10309309;28;20059;-71
2023/10/06 04:50:57;;;;;;;20.42;17.75;;;;;;;;;;10258906;22;20045;-71
2023/10/06 04:55:53;;;;;;;19.40;17.13;;;;;;;;;;10234200;28;20103;-71
2023/10/06 05:00:59;;;;;;;21.25;17.13;;;;;;;;;;10207876;28;20532;-70
2023/10/06 05:05:56;;;;;;;21.58;17.63;;;;;;;;;;10201952;28;20061;-71
2023/10/06 05:10:52;;;;;;;19.50;16.15;;;;;;;;;;10197647;28;20449;-70
2023/10/06 05:15:50;;;;;;;18.15;16.30;;;;;;;;;;10196731;28;20081;-71
2023/10/06 05:20:46;;;;;;;17.88;15.75;;;;;;;;;;10197139;28;20229;-71
2023/10/06 05:25:46;;;;;;;17.23;15.38;;;;;;;;;;10196896;28;20077;-71
2023/10/06 05:30:43;;;;;;;18.58;15.88;;;;;;;;;;10197015;28;20050;-71
2023/10/06 05:35:39;;;;;;;18.85;15.35;;;;;;;;;;10202902;28;20052;-71
2023/10/06 05:40:35;;;;;;;17.20;15.40;;;;;;;;;;10209260;28;20066;-71
2023/10/06 05:45:32;;;;;;;20.52;14.05;;;;;;;;;;10190409;28;20054;-71
2023/10/06 05:50:28;;;;;;;17.77;14.40;;;;;;;;;;10182967;28;20042;-71
2023/10/06 05:55:29;;;;;;;15.85;14.25;;;;;;;;;;10191826;28;20050;-71
2023/10/06 06:00:27;;;;;;;16.02;14.52;;;;;;;;;;10195915;28;20042;-71
2023/10/06 06:05:23;;;;;;;16.98;14.85;;;;;;;;;;10193339;28;20054;-71
2023/10/06 06:10:19;;;;;;;17.02;15.18;;;;;;;;;;10188616;28;20396;-71
2023/10/06 06:15:16;;;;;;;19.10;14.80;;;;;;;;;;10184742;28;20046;-71
2023/10/06 06:20:18;;;;;;;17.10;15.40;;;;;;;;;;10181982;28;20123;-71
2023/10/06 06:25:15;;;;;;;16.83;14.88;;;;;;;;;;10200697;28;20425;-71
2023/10/06 06:30:11;;;;;;;18.58;14.98;;;;;;;;;;10195981;28;20049;-71
2023/10/06 06:35:13;;;;;;;16.83;15.15;;;;;;;;;;10191942;28;20046;-71
2023/10/06 06:40:12;;;;;;;16.85;15.20;;;;;;;;;;10186072;28;20139;-71
2023/10/06 06:45:13;;;;;;;19.95;16.10;;;;;;;;;;10189736;28;20053;-71
2023/10/06 06:50:12;;;;;;;16.95;15.02;;;;;;;;;;10191249;28;20050;-70
2023/10/06 06:55:17;;;;;;;16.38;14.63;;;;;;;;;;10186740;28;20054;-71
2023/10/06 07:00:15;;;;;;;20.88;16.83;;;;;;;;;;10189258;28;20113;-71
2023/10/06 07:05:13;;;;;;;21.55;15.48;;;;;;;;;;10194371;28;20142;-71
2023/10/06 07:10:12;;;;;;;16.80;12.63;;;;;;;;;;10192789;28;20121;-71
2023/10/06 07:15:17;;;;;;;15.23;13.05;;;;;;;;;;10199016;28;20052;-71
2023/10/06 07:20:14;;;;;;;14.15;12.45;;;;;;;;;;10193001;28;20058;-71
2023/10/06 07:25:10;;;;;;;13.73;12.32;;;;;;;;;;10185181;28;20687;-71
2023/10/06 07:30:10;;;;;;;17.05;13.38;;;;;;;;;;10189189;28;20050;-71
2023/10/06 07:35:08;;;;;;;17.58;12.23;;;;;;;;;;10175973;28;20092;-71
2023/10/06 07:40:15;;;;;;;18.80;12.70;;;;;;;;;;10260195;22;20066;-71
2023/10/06 07:45:11;;;;;;;17.88;13.63;;;;;;;;;;10328149;28;20053;-71
2023/10/06 07:50:09;;;;;;;13.95;12.57;;;;;;;;;;10354419;28;20090;-72
2023/10/06 07:55:08;;;;;;;14.93;12.38;;;;;;;;;;10328794;28;20052;-71
2023/10/06 08:00:06;;;;;;;15.57;11.93;;;;;;;;;;10349954;28;20412;-72
2023/10/06 08:05:04;;;;;;;17.70;11.77;;;;;;;;;;10347525;28;20048;-71
2023/10/06 08:10:03;;;;;;;16.58;11.35;;;;;;;;;;10337420;28;20068;-71
2023/10/06 08:15:09;;;;;;;17.15;11.85;;;;;;;;;;10342295;28;20040;-71
2023/10/06 08:20:12;;;;;;;19.77;11.77;;;;;;;;;;10342836;22;20071;-71
2023/10/06 08:25:09;;;;;;;16.00;12.05;;;;;;;;;;10333752;28;20564;-70
2023/10/06 08:30:09;;;;;;;12.73;11.52;;;;;;;;;;10345408;22;20060;-71
2023/10/06 08:35:13;;;;;;;17.40;12.18;;;;;;;;;;10311238;28;20099;-71
2023/10/06 08:40:16;;;;;;;16.23;11.18;;;;;;;;;;10315648;28;20075;-71
2023/10/06 08:45:15;;;;;;;14.32;12.40;;;;;;;;;;10286633;28;20483;-70
2023/10/06 08:50:13;;;;;;;15.30;11.80;;;;;;;;;;10310889;28;20048;-70
2023/10/06 08:55:12;;;;;;;21.15;12.90;;;;;;;;;;10301012;28;20052;-70
2023/10/06 09:00:09;;;;;;;17.98;12.05;;;;;;;;;;10313471;28;20136;-70
2023/10/06 09:05:09;;;;;;;13.25;11.85;;;;;;;;;;10308358;28;20048;-71
2023/10/06 09:10:17;;;;;;;16.55;12.18;;;;;;;;;;10305918;28;20732;-70
2023/10/06 09:15:16;;;;;;;13.93;12.45;;;;;;;;;;10309783;28;20499;-70
2023/10/06 09:20:12;;;;;;;19.05;11.88;;;;;;;;;;10309574;28;20045;-71
2023/10/06 09:25:25;;;;;;;;;;;;;;;;;;10304279;28;20071;-71
2023/10/06 09:30:21;;;;;;;18.70;11.18;;;;;;;;;;10314067;28;19960;-70
2023/10/06 09:35:18;;;;;;;15.80;11.48;;;;;;;;;;10310074;28;20110;-71
2023/10/06 09:40:20;;;;;;;14.00;11.88;;;;;;;;;;10303945;28;20072;-70
2023/10/06 09:45:18;;;;;;;16.75;12.30;;;;;;;;;;10299706;28;20044;-70
2023/10/06 09:50:15;;;;;;;16.48;11.48;;;;;;;;;;10303153;28;20045;-71
2023/10/06 09:55:12;;;;;;;12.32;11.05;;;;;;;;;;10303925;28;20095;-71
2023/10/06 10:00:15;;;;;;;14.75;11.45;;;;;;;;;;10306231;28;20080;-70
2023/10/06 10:05:12;;;;;;;17.83;12.10;;;;;;;;;;10310321;28;20071;-70
2023/10/06 10:10:10;;;;;;;14.77;12.55;;;;;;;;;;10304216;28;20049;-70
2023/10/06 10:15:26;;;;;;;15.00;12.05;;;;;;;;;;10300084;28;20466;-70
2023/10/06 10:20:25;;;;;;;20.52;13.32;;;;;;;;;;10305246;28;20044;-70
2023/10/06 10:25:23;;;;;;;14.38;12.90;;;;;;;;;;10300057;28;20157;-71
2023/10/06 10:30:41;;;;;;;14.50;12.70;;;;;;;;;;10301544;28;24187;-70
2023/10/06 10:35:59;;;;;;;15.57;13.68;;;;;;;;;;10299607;28;20221;-70
2023/10/06 10:40:56;;;;;;;15.43;13.60;;;;;;;;;;10299190;28;20045;-70
2023/10/06 10:45:54;;;;;;;15.32;13.73;;;;;;;;;;10303122;28;20044;-70
2023/10/06 10:50:55;;;;;;;13.88;12.57;;;;;;;;;;10303012;28;20408;-70
2023/10/06 10:55:51;;;;;;;14.60;13.10;;;;;;;;;;10297406;28;20094;-70
2023/10/06 11:01:06;;;;;;;16.67;13.15;;;;;;;;;;10301387;28;20060;-70
2023/10/06 11:06:03;;;;;;;14.88;12.80;;;;;;;;;;10296257;28;20063;-70
2023/10/06 11:11:00;;;;;;;16.05;14.35;;;;;;;;;;10298068;28;20115;-71
2023/10/06 11:16:03;;;;;;;19.52;14.55;;;;;;;;;;10292725;28;20071;-71
2023/10/06 11:20:59;;;;;;;19.92;13.73;;;;;;;;;;10305473;28;20558;-71
2023/10/06 11:25:56;;;;;;;16.65;14.43;;;;;;;;;;10299244;28;20041;-70
2023/10/06 11:30:53;;;;;;;15.40;13.98;;;;;;;;;;10310399;28;20071;-71
2023/10/06 11:35:52;;;;;;;15.20;13.68;;;;;;;;;;10280031;28;20173;-71
2023/10/06 11:40:49;;;;;;;14.88;13.13;;;;;;;;;;10304544;28;20100;-71
2023/10/06 11:45:46;;;;;;;15.27;12.88;;;;;;;;;;10306750;28;20512;-72
2023/10/06 11:50:43;;;;;;;16.00;14.52;;;;;;;;;;10299926;28;20063;-72
2023/10/06 11:55:39;;;;;;;15.55;14.05;;;;;;;;;;10283034;28;20048;-72
2023/10/06 12:00:39;;;;;;;14.23;12.73;;;;;;;;;;10301387;28;20463;-71
2023/10/06 12:05:36;;;;;;;14.60;13.20;;;;;;;;;;10307361;28;20559;-72
2023/10/06 12:10:32;;;;;;;18.10;15.30;;;;;;;;;;10310522;28;20428;-71
2023/10/06 12:15:30;;;;;;;18.70;14.75;;;;;;;;;;10308854;28;20076;-70
2023/10/06 12:20:26;;;;;;;19.08;14.93;;;;;;;;;;10307172;28;20064;-71
2023/10/06 12:25:23;;;;;;;16.08;14.30;;;;;;;;;;10309426;28;20523;-71
2023/10/06 12:30:21;;;;;;;15.85;14.23;;;;;;;;;;10309230;28;20049;-71
2023/10/06 12:35:21;;;;;;;16.95;13.95;;;;;;;;;;10307426;28;20540;-71
2023/10/06 12:40:17;;;;;;;18.88;15.43;;;;;;;;;;10310684;28;20139;-71
2023/10/06 12:45:17;;;;;;;17.23;15.48;;;;;;;;;;10301042;28;20045;-71
2023/10/06 12:50:18;;;;;;;18.23;13.48;;;;;;;;;;10306674;28;20079;-71
2023/10/06 12:55:14;;;;;;;16.38;13.43;;;;;;;;;;10311613;28;20049;-72
2023/10/06 13:00:11;;;;;;;16.48;13.93;;;;;;;;;;10300470;28;20456;-71
2023/10/06 13:05:18;;;;;;;15.73;12.38;;;;;;;;;;10301965;28;20132;-72
2023/10/06 13:10:16;;;;;;;13.15;11.98;;;;;;;;;;10308719;28;20051;-72
2023/10/06 13:15:14;;;;;;;15.73;12.77;;;;;;;;;;10305520;28;20049;-72
2023/10/06 13:20:13;;;;;;;14.10;12.20;;;;;;;;;;10308904;28;20459;-71
2023/10/06 13:25:11;;;;;;;16.95;12.50;;;;;;;;;;10288680;28;21669;-72
2023/10/06 13:30:13;;;;;;;12.18;10.93;;;;;;;;;;10302155;28;20060;-72
2023/10/06 13:35:16;;;;;;;11.90;10.75;;;;;;;;;;10309776;28;20049;-71
2023/10/06 13:40:13;;;;;;;13.32;11.02;;;;;;;;;;10300091;28;20056;-72
2023/10/06 13:45:15;;;;;;;15.10;10.90;;;;;;;;;;10299712;28;20049;-72
2023/10/06 13:50:14;;;;;;;12.07;10.83;;;;;;;;;;10310525;28;20555;-72
2023/10/06 13:55:11;;;;;;;12.07;10.82;;;;;;;;;;10298071;28;20096;-72
2023/10/06 14:00:13;;;;;;;11.30;10.20;;;;;;;;;;10302295;28;20598;-72
2023/10/06 14:05:11;;;;;;;10.77;9.68;;;;;;;;;;10283578;28;20128;-72
2023/10/06 14:10:13;;;;;;;14.10;10.05;;;;;;;;;;10304490;28;20072;-72
2023/10/06 14:15:22;;;;;;;15.93;9.53;;;;;;;;;;10296344;28;20497;-72
2023/10/06 14:20:25;;;;;;;10.50;9.50;;;;;;;;;;10301019;28;20106;-72
2023/10/06 14:25:22;;;;;;;11.13;9.38;;;;;;;;;;10303114;28;20131;-72
2023/10/06 14:30:21;;;;;;;13.77;9.80;;;;;;;;;;10309893;28;20049;-71
2023/10/06 14:35:31;;;;;;;15.40;9.15;;;;;;;;;;10306416;28;20045;-72
2023/10/06 14:45:59;;;;;;;14.02;9.02;;;;;;;;;;10293638;28;20099;-72
2023/10/06 14:50:56;;;;;;;9.75;8.75;;;;;;;;;;10332717;22;20431;-72
2023/10/06 14:55:52;;;;;;;11.02;8.95;;;;;;;;;;10296783;28;20079;-72
2023/10/06 15:00:49;;;;;;;14.00;8.60;;;;;;;;;;10304363;28;20127;-72
2023/10/06 15:05:45;;;;;;;12.68;9.50;;;;;;;;;;10298118;28;20086;-72
2023/10/06 15:10:42;;;;;;;11.70;8.63;;;;;;;;;;10303785;28;20084;-72
2023/10/06 15:15:44;;;;;;;14.68;9.02;;;;;;;;;;10303922;28;20217;-72
2023/10/06 15:20:42;;;;;;;12.27;8.57;;;;;;;;;;10295327;28;20177;-71
2023/10/06 15:25:39;;;;;;;11.45;8.70;;;;;;;;;;10302159;28;20558;-72
2023/10/06 15:30:36;;;;;;;9.60;8.68;;;;;;;;;;10293805;28;20048;-72
2023/10/06 15:35:36;;;;;;;10.60;8.30;;;;;;;;;;10300910;28;20585;-72
2023/10/06 15:40:33;;;;;;;9.82;8.23;;;;;;;;;;10294588;28;20052;-72
2023/10/06 15:45:30;;;;;;;8.95;8.05;;;;;;;;;;10303542;28;20138;-72
2023/10/06 15:50:27;;;;;;;12.02;8.25;;;;;;;;;;10310125;28;20048;-72
2023/10/06 15:55:24;;;;;;;11.45;8.65;;;;;;;;;;10297367;28;20523;-72
2023/10/06 16:00:22;;;;;;;9.43;8.32;;;;;;;;;;10299869;28;20055;-72
2023/10/06 16:05:19;;;;;;;12.55;8.65;;;;;;;;;;10308872;28;20492;-72
2023/10/06 16:10:23;;;;;;;11.35;8.18;;;;;;;;;;10310179;28;20131;-72
2023/10/06 16:15:20;;;;;;;13.30;8.93;;;;;;;;;;10281125;28;20048;-72
2023/10/06 16:20:16;;;;;;;11.15;9.77;;;;;;;;;;10295292;28;20330;-71
2023/10/06 16:25:13;;;;;;;9.98;9.13;;;;;;;;;;10304595;28;20063;-70
2023/10/06 16:30:13;;;;;;;11.02;9.43;;;;;;;;;;10294838;28;20048;-72
2023/10/06 16:35:12;;;;;;;11.43;10.18;;;;;;;;;;10286418;28;20079;-72
2023/10/06 16:40:12;;;;;;;14.75;10.48;;;;;;;;;;10282105;28;20083;-72
2023/10/06 16:45:10;;;;;;;10.82;9.77;;;;;;;;;;10310264;28;20056;-72
2023/10/06 16:50:08;;;;;;;14.18;9.70;;;;;;;;;;10299103;28;20041;-72
2023/10/06 16:55:06;;;;;;;15.48;9.43;;;;;;;;;;10310027;28;20118;-72
2023/10/06 17:00:09;;;;;;;11.65;9.30;;;;;;;;;;10300154;28;20048;-72
2023/10/06 17:05:05;;;;;;;15.02;9.55;;;;;;;;;;10302252;28;20049;-72
2023/10/06 17:10:05;;;;;;;13.35;9.80;;;;;;;;;;10305347;28;20048;-71
2023/10/06 17:15:02;;;;;;;16.23;11.57;;;;;;;;;;10299879;28;20099;-71
2023/10/06 17:20:37;;;;;;;;;;;;;;;;;;;;;
2023/10/06 17:25:51;;;;;;;14.75;13.30;;;;;;;;;;10301048;28;20044;-71
2023/10/06 17:30:48;;;;;;;17.83;14.73;;;;;;;;;;10326579;22;20526;-70
2023/10/06 17:35:46;;;;;;;16.35;14.38;;;;;;;;;;10296175;28;20063;-71
2023/10/06 17:40:42;;;;;;;21.17;14.55;;;;;;;;;;10308833;28;20148;-70
2023/10/06 17:45:38;;;;;;;18.50;14.45;;;;;;;;;;10301377;28;20131;-71
2023/10/06 17:50:35;;;;;;;20.70;14.95;;;;;;;;;;10316567;28;20048;-71
2023/10/06 17:55:33;;;;;;;20.50;14.63;;;;;;;;;;10298025;28;20044;-71
2023/10/06 18:00:30;;;;;;;16.58;14.98;;;;;;;;;;10297876;28;20118;-70
2023/10/06 18:05:26;;;;;;;18.70;15.18;;;;;;;;;;10297075;28;20317;-71
2023/10/06 18:10:23;;;;;;;19.40;14.77;;;;;;;;;;10293388;28;20142;-71
2023/10/06 18:15:19;;;;;;;20.50;16.13;;;;;;;;;;10301728;28;20050;-71
2023/10/06 18:20:15;;;;;;;23.15;15.25;;;;;;;;;;10288829;28;20040;-70
2023/10/06 18:25:12;;;;;;;19.70;15.98;;;;;;;;;;10298578;28;20541;-70
2023/10/06 18:30:09;;;;;;;24.52;16.95;;;;;;;;;;10302471;28;20045;-71
2023/10/06 18:35:06;;;;;;;24.05;15.90;;;;;;;;;;10282046;28;20048;-70
2023/10/06 18:40:02;;;;;;;16.58;14.85;;;;;;;;;;10307046;28;20109;-70
2023/10/06 18:44:58;;;;;;;17.58;15.55;;;;;;;;;;10288187;28;20076;-70
2023/10/06 18:49:55;;;;;;;16.67;14.73;;;;;;;;;;10278897;28;20048;-70
2023/10/06 18:54:51;;;;;;;18.23;16.15;;;;;;;;;;10293864;28;20056;-70
2023/10/06 18:59:49;;;;;;;18.60;15.43;;;;;;;;;;10304630;28;20061;-70
2023/10/06 19:04:45;;;;;;;16.77;15.05;;;;;;;;;;10301129;28;20524;-70
2023/10/06 19:09:42;;;;;;;16.30;14.48;;;;;;;;;;10290733;28;20704;-70
2023/10/06 19:14:39;;;;;;;21.63;15.95;;;;;;;;;;10294120;28;20065;-70
2023/10/06 19:19:36;;;;;;;17.10;15.38;;;;;;;;;;10301619;28;20072;-70
2023/10/06 19:24:35;;;;;;;15.60;13.88;;;;;;;;;;10304290;28;20563;-71
2023/10/06 19:29:31;;;;;;;15.80;14.05;;;;;;;;;;10287435;28;20049;-70
2023/10/06 19:34:28;;;;;;;15.38;13.75;;;;;;;;;;10283001;28;20078;-70
2023/10/06 19:39:26;;;;;;;15.88;13.93;;;;;;;;;;10287193;28;20461;-69
2023/10/06 19:44:31;;;;;;;16.00;14.32;;;;;;;;;;10276870;28;20075;-70
2023/10/06 19:49:31;;;;;;;17.92;14.52;;;;;;;;;;10298565;28;20048;-70
2023/10/06 19:54:27;;;;;;;17.60;15.48;;;;;;;;;;10294500;28;20049;-70
2023/10/06 19:59:24;;;;;;;20.58;15.13;;;;;;;;;;10292907;28;20252;-70
2023/10/06 20:04:20;;;;;;;19.25;15.13;;;;;;;;;;10304079;28;20437;-69
2023/10/06 20:09:21;;;;;;;17.10;15.32;;;;;;;;;;10291444;28;20036;-70
2023/10/06 20:14:17;;;;;;;23.02;16.42;;;;;;;;;;10298480;28;20041;-69
2023/10/06 20:19:15;;;;;;;24.60;16.55;;;;;;;;;;10291617;28;20425;-70
2023/10/06 20:24:14;;;;;;;24.38;16.63;;;;;;;;;;10307556;28;20037;-69
2023/10/06 20:29:10;;;;;;;28.33;16.00;;;;;;;;;;10315101;28;20056;-69
2023/10/06 20:34:07;;;;;;;22.15;15.70;;;;;;;;;;10298432;28;20063;-69
2023/10/06 20:39:08;;;;;;;22.80;15.73;;;;;;;;;;10291587;28;20057;-69
2023/10/06 20:44:11;;;;;;;20.93;15.13;;;;;;;;;;10298878;28;20574;-69
2023/10/06 20:49:13;;;;;;;17.80;14.35;;;;;;;;;;10287157;28;20475;-69
2023/10/06 20:54:09;;;;;;;17.13;13.15;;;;;;;;;;10309970;28;20048;-69
2023/10/06 20:59:07;;;;;;;22.90;14.93;;;;;;;;;;10296642;28;20501;-69
2023/10/06 21:04:04;;;;;;;23.00;14.45;;;;;;;;;;10280643;28;20077;-69
2023/10/06 21:09:04;;;;;;;27.67;14.70;;;;;;;;;;10306927;28;20669;-69
2023/10/06 21:14:00;;;;;;;20.60;13.65;;;;;;;;;;10297688;28;20496;-69
2023/10/06 21:18:58;;;;;;;22.65;13.10;;;;;;;;;;10301256;28;20416;-69
2023/10/06 21:23:56;;;;;;;18.38;13.52;;;;;;;;;;10305312;28;20044;-69
2023/10/06 21:28:53;;;;;;;20.55;12.98;;;;;;;;;;10301705;28;20057;-69
2023/10/06 21:33:50;;;;;;;22.88;13.95;;;;;;;;;;10298445;28;20122;-70
2023/10/06 21:38:46;;;;;;;16.42;12.82;;;;;;;;;;10285735;28;20057;-69
2023/10/06 21:43:42;;;;;;;20.75;12.00;;;;;;;;;;10296434;28;20508;-69
2023/10/06 21:48:39;;;;;;;25.33;13.18;;;;;;;;;;10311968;28;20064;-69
2023/10/06 21:53:35;;;;;;;21.83;11.05;;;;;;;;;;10291887;28;20136;-69
2023/10/06 21:58:31;;;;;;;16.60;11.27;;;;;;;;;;10299448;28;20052;-69
2023/10/06 22:03:28;;;;;;;22.92;12.02;;;;;;;;;;10294476;28;20048;-69
2023/10/06 22:08:24;;;;;;;20.40;11.05;;;;;;;;;;10296838;28;20414;-69
2023/10/06 22:13:21;;;;;;;24.75;11.73;;;;;;;;;;10307776;28;20084;-70
2023/10/06 22:18:18;;;;;;;17.38;10.35;;;;;;;;;;10306050;28;20044;-70
2023/10/06 22:23:14;;;;;;;16.95;11.15;;;;;;;;;;10297503;28;20048;-70
2023/10/06 22:28:12;;;;;;;16.40;10.80;;;;;;;;;;10312233;28;20048;-70
2023/10/06 22:33:08;;;;;;;16.42;10.88;;;;;;;;;;10292169;28;20056;-69
2023/10/06 22:38:05;;;;;;;19.25;9.68;;;;;;;;;;10284607;28;20110;-70
2023/10/06 22:43:02;;;;;;;14.82;9.25;;;;;;;;;;10273387;28;20746;-68
2023/10/06 22:48:00;;;;;;;18.70;10.15;;;;;;;;;;10287638;28;20106;-69
2023/10/06 22:52:58;;;;;;;13.98;9.10;;;;;;;;;;10291717;28;20048;-69
2023/10/06 22:57:55;;;;;;;22.38;9.93;;;;;;;;;;10304222;28;20455;-69
2023/10/06 23:02:53;;;;;;;15.88;9.00;;;;;;;;;;10300356;28;20045;-69
2023/10/06 23:07:51;;;;;;;11.68;8.63;;;;;;;;;;10298362;28;20467;-69
2023/10/06 23:12:50;;;;;;;13.13;9.02;;;;;;;;;;10301573;28;20048;-68
2023/10/06 23:17:46;;;;;;;16.83;8.73;;;;;;;;;;10292650;28;20098;-71
2023/10/06 23:22:43;;;;;;;16.10;8.32;;;;;;;;;;10300714;28;20496;-69
2023/10/06 23:27:39;;;;;;;16.85;8.10;;;;;;;;;;10301681;28;20056;-69
2023/10/06 23:32:37;;;;;;;19.48;9.52;;;;;;;;;;10299443;28;20140;-69
2023/10/06 23:37:33;;;;;;;18.52;8.35;;;;;;;;;;10304125;28;20048;-69
2023/10/06 23:42:29;;;;;;;16.27;8.60;;;;;;;;;;10297089;28;20083;-69
2023/10/06 23:47:28;;;;;;;12.00;8.13;;;;;;;;;;10294238;28;20090;-68
2023/10/06 23:52:26;;;;;;;13.77;9.15;;;;;;;;;;10280280;28;20386;-70
2023/10/06 23:57:22;;;;;;;18.25;8.98;;;;;;;;;;10291800;28;20072;-69
